KPGV/PGV METAR and TAF weather

Enter ICAO airport designator
Station Type Date Time Source
KPGV METAR 2021/01/17 18:55 UTC NOAA

KPGV 171855Z AUTO 24009G14KT 10SM CLR 11/M02 A2989 RMK AO2


Station Type Date Time Source
KPGV Decoded METAR 2021/01/17 18:55 UTC NOAA

Pitt-Greenville Airport, NC, United States (KPGV) 35-38N 077-24W
Jan 17, 2021 - 01:55 PM EST / 2021.01.17 1855 UTC
Wind: from the WSW (240 degrees) at 10 MPH (9 KT) gusting to 16 MPH (14 KT):0
Visibility: 10 mile(s):0
Sky conditions: clear
Temperature: 51 F (11 C)
Dew Point: 28 F (-2 C)
Relative Humidity: 40%
Pressure (altimeter): 29.89 in. Hg (1012 hPa)
ob: KPGV 171855Z AUTO 24009G14KT 10SM CLR 11/M02 A2989 RMK AO2
cycle: 19

Station Type Date Time Source
KPGV TAF 2021/01/17 18:30 UTC NOAA

TAF KPGV 171726Z 1718/1818 24009G14KT P6SM SKC
FM172200 23009KT P6SM SCT250
FM181500 26008G14KT P6SM FEW250
AMD LTD TO CLD VIS AND WIND

Example: see airport list